West Hyattsville, Maryland
Current Conditions -  °F | °C
As of 8:05 AM on Thursday 18 Dec 2014 (Local Time) from KCGS Reporting Station
Clear Clear  
Wind Chill: 29°   Ceiling: Unl
Heat Index: 36°   Visibility: 10mi
Dew Point: 19°   Wind: 8mph
Humidity: 52%   Direction: 290°WNW
Pressure: 30.16"   Gusts: NA
Location:  38.9558°N, 76.9456°W
Report Text: KCGS 181305Z AUTO 29007KT 10SM CLR 02/M07 A3016 RMK AO1
Loading
Personal Weather Stations






























Interactive Weather Map New forecast layout! Learn more

10-Day Weather Forecast

Advertisements
Track Severe Weather on mobile